Terminal Aerodrome Forecast
Issued by NWS

Home | Current Version | Previous Version | Text Only | Print | Product List | Glossary On
Versions: 1 2 3 4 5 6 7 8 9 10 11 12 13 14 15 16 17 18 19 20 21 22
000
FTUS42 KTBW 192300
TAFPGD
TAF
KPGD 192338Z 2000/2024 VRB03KT 6SM SHRA SCT010 BKN035 OVC090
      TEMPO 2000/2003 2SM SHRA BKN020
     FM200600 13005KT P6SM VCSH BKN035 OVC080
     FM200900 16006KT P6SM VCSH BKN040 OVC100
     FM201800 25008KT P6SM VCSH BKN040 OVC080=

USA.gov is the U.S. government's official web portal to all federal, state and local government web resources and services.